Time;durP1;ratioP1;P1;durP2;ratioP2;P2;SDS_P1;SDS_P2;PMS_P1;PMS_P2;Temp;Humidity;BMP_temperature;BMP_pressure;BME280_temperature;BME280_humidity;BME280_pressure;Samples;Min_cycle;Max_cycle;Signal;HPM_P1;HPM_P2
2021/05/27 00:00:23;;;;;;;2.30;0.73;;;11.20;87.60;;;;;;6121095;23;20026;-71
2021/05/27 00:03:10;;;;;;;0.93;0.43;;;11.20;87.30;;;;;;6120674;23;20026;-71
2021/05/27 00:05:36;;;;;;;3.40;0.52;;;11.20;87.90;;;;;;6119762;23;20475;-71
2021/05/27 00:08:02;;;;;;;1.40;0.70;;;11.20;87.90;;;;;;6144057;23;20118;-70
2021/05/27 00:10:30;;;;;;;1.13;0.52;;;11.10;88.10;;;;;;6121085;23;20024;-71
2021/05/27 00:12:57;;;;;;;1.25;1.02;;;11.00;88.60;;;;;;6123681;23;20056;-71
2021/05/27 00:15:26;;;;;;;2.80;0.47;;;11.00;89.10;;;;;;6121334;23;20022;-71
2021/05/27 00:17:52;;;;;;;0.75;0.60;;;10.90;89.40;;;;;;6096913;23;20033;-71
2021/05/27 00:20:19;;;;;;;1.08;0.43;;;10.90;89.60;;;;;;6120917;23;20092;-70
2021/05/27 00:22:45;;;;;;;4.07;0.85;;;10.90;90.00;;;;;;6120864;23;20053;-71
2021/05/27 00:25:13;;;;;;;2.22;0.47;;;10.80;90.20;;;;;;6125092;23;20037;-71
2021/05/27 00:27:40;;;;;;;2.67;0.60;;;10.80;90.40;;;;;;6122085;23;20476;-71
2021/05/27 00:30:07;;;;;;;3.25;0.65;;;10.60;90.80;;;;;;6120729;23;20050;-71
2021/05/27 00:32:37;;;;;;;2.40;0.82;;;10.60;91.10;;;;;;6144214;23;20100;-71
2021/05/27 00:35:04;;;;;;;7.32;0.80;;;10.50;91.00;;;;;;6119185;23;20364;-71
2021/05/27 00:37:30;;;;;;;0.60;0.60;;;10.60;91.20;;;;;;6119488;23;20050;-71
2021/05/27 00:39:56;;;;;;;0.70;0.57;;;10.60;91.20;;;;;;6147171;23;20017;-70
2021/05/27 00:42:22;;;;;;;0.80;0.68;;;10.50;91.30;;;;;;6121627;23;20105;-70
2021/05/27 00:45:09;;;;;;;2.08;0.77;;;10.50;91.50;;;;;;6120608;23;20412;-71
2021/05/27 00:47:35;;;;;;;2.20;0.60;;;10.40;91.70;;;;;;6124820;23;20026;-71
2021/05/27 00:50:03;;;;;;;2.30;0.93;;;10.40;91.70;;;;;;6119679;23;20037;-71
2021/05/27 00:52:31;;;;;;;3.28;0.77;;;10.30;91.90;;;;;;6143733;23;20057;-71
2021/05/27 00:54:59;;;;;;;3.40;1.38;;;10.40;91.70;;;;;;6119177;23;20069;-71
2021/05/27 00:57:32;;;;;;;2.35;0.60;;;10.30;91.70;;;;;;6094622;23;20022;-71
2021/05/27 00:59:59;;;;;;;1.02;0.60;;;10.30;91.80;;;;;;6122110;23;20030;-70
2021/05/27 01:02:26;;;;;;;1.05;0.40;;;10.30;92.00;;;;;;6097508;23;20105;-71
2021/05/27 01:04:53;;;;;;;1.00;0.90;;;10.30;92.00;;;;;;6143511;23;20068;-71
2021/05/27 01:07:22;;;;;;;1.00;0.45;;;10.30;91.80;;;;;;6118771;23;20033;-71
2021/05/27 01:09:50;;;;;;;4.50;0.85;;;10.30;91.70;;;;;;6143212;23;20408;-71
2021/05/27 01:12:16;;;;;;;4.18;0.70;;;10.30;91.70;;;;;;6094839;23;20065;-71
2021/05/27 01:17:31;;;;;;;1.98;0.70;;;10.30;91.50;;;;;;6119080;23;20092;-71
2021/05/27 01:19:57;;;;;;;1.35;0.32;;;10.30;91.70;;;;;;6118750;23;20036;-71
2021/05/27 01:22:25;;;;;;;2.35;1.20;;;10.20;91.70;;;;;;6098008;23;20483;-71
2021/05/27 01:25:03;;;;;;;1.70;0.38;;;10.10;92.20;;;;;;6143957;23;20042;-71
2021/05/27 01:27:29;;;;;;;0.30;0.30;;;10.00;92.40;;;;;;6094962;23;20029;-71
2021/05/27 01:29:55;;;;;;;0.63;0.63;;;10.00;92.50;;;;;;6143156;23;20060;-71
2021/05/27 01:32:22;;;;;;;0.88;0.40;;;10.00;92.50;;;;;;6122542;23;20018;-71
2021/05/27 01:34:49;;;;;;;3.13;0.40;;;10.00;92.70;;;;;;6121174;23;20491;-71
2021/05/27 01:37:15;;;;;;;2.60;0.80;;;10.00;92.60;;;;;;6142145;23;20038;-71
2021/05/27 01:39:46;;;;;;;3.15;0.40;;;10.00;92.60;;;;;;6143321;23;20082;-71
2021/05/27 01:42:13;;;;;;;2.53;0.68;;;10.00;92.80;;;;;;6118656;23;20018;-72
2021/05/27 01:44:43;;;;;;;0.35;0.22;;;9.90;92.90;;;;;;6119034;23;20045;-71
2021/05/27 01:47:09;;;;;;;0.63;0.45;;;9.90;93.00;;;;;;6097101;23;20028;-71
2021/05/27 01:49:40;;;;;;;0.70;0.70;;;9.80;93.10;;;;;;6120761;23;20021;-71
2021/05/27 01:52:06;;;;;;;1.00;0.40;;;9.80;93.20;;;;;;6143062;23;20061;-72
2021/05/27 01:54:32;;;;;;;1.35;0.68;;;10.00;92.80;;;;;;6119041;23;20104;-71
2021/05/27 01:56:59;;;;;;;1.35;0.75;;;9.90;92.60;;;;;;6122400;23;20014;-72
2021/05/27 01:59:25;;;;;;;6.00;0.40;;;10.10;92.20;;;;;;6142875;23;20476;-71
2021/05/27 02:01:52;;;;;;;2.33;0.88;;;10.20;92.00;;;;;;6121848;23;20029;-71
2021/05/27 02:04:17;;;;;;;2.58;0.68;;;10.30;91.60;;;;;;6118560;23;20476;-71
2021/05/27 02:06:44;;;;;;;2.15;0.55;;;10.50;91.30;;;;;;6118606;23;20089;-71
2021/05/27 02:09:12;;;;;;;2.75;0.50;;;10.50;91.10;;;;;;6094455;23;20341;-71
2021/05/27 02:11:50;;;;;;;5.05;0.65;;;10.70;91.10;;;;;;6143041;23;20022;-71
2021/05/27 02:14:19;;;;;;;3.13;0.90;;;10.50;92.10;;;;;;6120145;23;20032;-71
2021/05/27 02:16:46;;;;;;;3.03;0.65;;;10.30;93.30;;;;;;6117564;23;20018;-72
2021/05/27 02:19:13;;;;;;;2.42;0.85;;;10.20;93.70;;;;;;6141350;23;20360;-72
2021/05/27 02:21:42;;;;;;;0.80;0.73;;;10.00;93.90;;;;;;6121569;23;20022;-71
2021/05/27 02:24:12;;;;;;;1.27;0.80;;;9.90;94.30;;;;;;6144989;23;20080;-72
2021/05/27 02:26:38;;;;;;;2.47;0.77;;;9.80;94.90;;;;;;6118715;23;20022;-72
2021/05/27 02:29:17;;;;;;;5.38;1.05;;;9.90;95.00;;;;;;6122930;23;20124;-72
2021/05/27 02:31:44;;;;;;;1.65;0.52;;;9.90;95.00;;;;;;6120295;23;20106;-72
2021/05/27 02:34:18;;;;;;;1.77;0.77;;;9.90;94.90;;;;;;6097668;23;20104;-72
2021/05/27 02:36:46;;;;;;;1.25;0.70;;;9.80;94.80;;;;;;6120286;23;20092;-72
2021/05/27 02:39:13;;;;;;;2.40;1.02;;;9.80;95.10;;;;;;6118530;23;20022;-72
2021/05/27 02:41:47;;;;;;;2.58;0.98;;;9.80;95.00;;;;;;6119981;23;20052;-72
2021/05/27 02:44:17;;;;;;;2.08;1.13;;;9.80;94.90;;;;;;6143440;23;20479;-72
2021/05/27 02:46:49;;;;;;;3.30;1.13;;;9.90;94.90;;;;;;6096377;23;20021;-72
2021/05/27 02:49:16;;;;;;;5.53;1.10;;;9.90;94.80;;;;;;6120013;23;20081;-71
2021/05/27 02:51:44;;;;;;;4.03;0.68;;;10.10;94.90;;;;;;6124142;23;20022;-72
2021/05/27 02:54:10;;;;;;;1.35;1.25;;;10.20;94.60;;;;;;6123311;23;20028;-72
2021/05/27 02:56:39;;;;;;;1.58;0.90;;;10.30;94.70;;;;;;6096129;23;20081;-72
2021/05/27 02:59:06;;;;;;;1.20;0.98;;;10.30;94.70;;;;;;6146018;23;20028;-72
2021/05/27 03:01:33;;;;;;;1.08;1.05;;;10.40;94.50;;;;;;6118929;23;20068;-72
2021/05/27 03:04:00;;;;;;;1.00;1.00;;;10.40;94.60;;;;;;6120265;23;20480;-72
2021/05/27 03:06:27;;;;;;;9.60;2.20;;;10.50;94.50;;;;;;6147274;23;20022;-71
2021/05/27 03:08:54;;;;;;;3.53;0.85;;;10.50;94.40;;;;;;6120237;23;20026;-72
2021/05/27 03:11:21;;;;;;;2.33;0.73;;;10.60;94.00;;;;;;6121500;23;20030;-72
2021/05/27 03:13:50;;;;;;;8.20;0.98;;;10.60;93.80;;;;;;6143762;23;20100;-72
2021/05/27 03:16:18;;;;;;;17.40;2.13;;;10.70;93.40;;;;;;6099387;23;20021;-72
2021/05/27 03:18:56;;;;;;;1.08;0.75;;;10.80;93.40;;;;;;6120304;23;20037;-72
2021/05/27 03:21:23;;;;;;;2.58;1.27;;;10.90;93.50;;;;;;6120410;23;20085;-72
2021/05/27 03:23:50;;;;;;;3.35;0.73;;;10.90;93.60;;;;;;6120123;23;20049;-73
2021/05/27 03:26:17;;;;;;;1.27;0.75;;;11.00;93.80;;;;;;6124399;23;20060;-72
2021/05/27 03:28:44;;;;;;;3.70;0.85;;;11.00;94.00;;;;;;6144245;23;20029;-72
2021/05/27 03:31:15;;;;;;;1.15;0.57;;;11.00;94.40;;;;;;6096598;23;20029;-72
2021/05/27 03:33:43;;;;;;;2.38;0.70;;;11.20;94.40;;;;;;6123220;23;20160;-72
2021/05/27 03:36:10;;;;;;;3.08;0.73;;;11.20;94.00;;;;;;6120285;23;20049;-72
2021/05/27 03:38:38;;;;;;;0.90;0.47;;;11.30;93.80;;;;;;6119853;23;20029;-72
2021/05/27 03:41:04;;;;;;;1.88;0.60;;;11.40;93.30;;;;;;6121642;23;20021;-72
2021/05/27 03:43:32;;;;;;;1.50;0.55;;;11.50;92.60;;;;;;6099578;23;20025;-72
2021/05/27 03:46:00;;;;;;;2.08;0.70;;;11.50;92.80;;;;;;6119752;23;20045;-72
2021/05/27 03:48:27;;;;;;;2.08;0.77;;;11.60;92.60;;;;;;6120068;23;20022;-72
2021/05/27 03:50:54;;;;;;;4.60;0.85;;;11.60;92.50;;;;;;6119581;23;20029;-72
2021/05/27 03:53:24;;;;;;;2.72;0.50;;;11.60;92.70;;;;;;6121303;23;20045;-72
2021/05/27 03:55:57;;;;;;;4.25;0.73;;;11.80;91.80;;;;;;6121532;23;20022;-72
2021/05/27 04:01:08;;;;;;;2.95;0.60;;;12.00;91.00;;;;;;6119510;23;20049;-72
2021/05/27 04:09:22;;;;;;;1.60;0.60;;;12.30;90.30;;;;;;6121347;23;20040;-72
2021/05/27 04:11:48;;;;;;;2.42;0.65;;;12.40;90.00;;;;;;6119116;23;20402;-72
2021/05/27 04:14:14;;;;;;;4.20;0.60;;;12.50;90.00;;;;;;6122965;23;20033;-72
2021/05/27 04:16:40;;;;;;;1.17;0.73;;;12.60;89.90;;;;;;6144208;23;20372;-72
2021/05/27 04:19:06;;;;;;;1.75;0.70;;;12.60;90.40;;;;;;6119514;23;20099;-72
2021/05/27 04:21:32;;;;;;;3.45;0.82;;;12.70;90.40;;;;;;6119866;23;20412;-72
2021/05/27 04:23:58;;;;;;;3.28;0.77;;;12.80;90.30;;;;;;6124795;23;20026;-72
2021/05/27 04:26:24;;;;;;;5.15;0.93;;;12.90;89.50;;;;;;6121098;23;20052;-72
2021/05/27 04:28:50;;;;;;;2.40;0.52;;;13.00;90.00;;;;;;6145655;23;20045;-71
2021/05/27 04:31:18;;;;;;;7.07;1.00;;;13.20;89.70;;;;;;6121245;23;20424;-73
2021/05/27 04:33:45;;;;;;;3.92;0.90;;;13.30;89.70;;;;;;6120867;23;20092;-72
2021/05/27 04:36:11;;;;;;;2.83;0.55;;;13.40;89.20;;;;;;6147271;23;20369;-73
2021/05/27 04:38:38;;;;;;;1.85;0.50;;;13.50;89.30;;;;;;6144240;23;20029;-72
2021/05/27 04:41:05;;;;;;;6.53;0.70;;;13.70;88.50;;;;;;6095153;23;20026;-72
2021/05/27 04:43:32;;;;;;;0.75;0.68;;;13.70;88.70;;;;;;6094889;23;20113;-73
2021/05/27 04:45:58;;;;;;;2.75;0.82;;;13.70;87.90;;;;;;6122732;23;20100;-72
2021/05/27 04:48:35;;;;;;;1.50;0.73;;;13.90;87.60;;;;;;6119275;23;20535;-73
2021/05/27 04:51:01;;;;;;;2.53;0.50;;;14.00;86.30;;;;;;6120874;23;20029;-73
2021/05/27 04:53:28;;;;;;;2.75;1.10;;;14.10;85.00;;;;;;6143735;23;20049;-72
2021/05/27 04:55:55;;;;;;;1.50;0.82;;;14.20;84.70;;;;;;6122720;23;20054;-72
2021/05/27 04:58:21;;;;;;;3.03;0.80;;;14.30;83.20;;;;;;6118660;23;20037;-73
2021/05/27 05:00:49;;;;;;;4.85;0.90;;;14.40;83.20;;;;;;6120204;23;20536;-73
2021/05/27 05:03:15;;;;;;;4.78;1.10;;;14.50;83.80;;;;;;6098147;23;20028;-74
2021/05/27 05:05:41;;;;;;;3.00;0.55;;;14.60;84.00;;;;;;6145539;23;20022;-65
2021/05/27 05:08:07;;;;;;;2.17;1.00;;;14.70;83.90;;;;;;6120402;23;20053;-74
2021/05/27 05:10:34;;;;;;;0.77;0.77;;;14.80;84.10;;;;;;6120014;23;20518;-76
2021/05/27 05:13:00;;;;;;;7.53;1.27;;;14.90;82.80;;;;;;6145123;23;20044;-76
2021/05/27 05:15:29;;;;;;;3.03;0.90;;;15.00;82.00;;;;;;6117053;23;20092;-77
2021/05/27 05:17:57;;;;;;;1.92;0.80;;;14.90;82.40;;;;;;6143109;23;20045;-74
2021/05/27 05:20:26;;;;;;;2.13;0.77;;;14.90;82.40;;;;;;6121903;23;20021;-76
2021/05/27 05:23:07;;;;;;;4.32;1.40;;;14.90;83.00;;;;;;6120155;23;20044;-72
2021/05/27 05:25:35;;;;;;;1.45;1.15;;;15.10;82.70;;;;;;6147036;23;20028;-72
2021/05/27 05:28:02;;;;;;;1.05;1.05;;;15.40;82.20;;;;;;6118871;23;20415;-73
2021/05/27 05:30:29;;;;;;;1.15;1.05;;;15.40;81.30;;;;;;6094319;23;20028;-74
2021/05/27 05:32:56;;;;;;;5.15;1.00;;;15.50;82.00;;;;;;6120362;23;20033;-73
2021/05/27 05:35:23;;;;;;;5.43;0.65;;;15.50;81.80;;;;;;6118516;23;20052;-73
2021/05/27 05:37:49;;;;;;;6.32;0.70;;;15.70;81.80;;;;;;6118785;23;20056;-70
2021/05/27 05:40:20;;;;;;;1.17;0.98;;;15.80;81.20;;;;;;6146557;23;20030;-73
2021/05/27 05:42:46;;;;;;;2.67;0.80;;;15.90;81.30;;;;;;6117197;23;20049;-75
2021/05/27 05:45:15;;;;;;;5.07;1.20;;;15.90;81.20;;;;;;6118744;23;20361;-75
2021/05/27 05:47:47;;;;;;;4.70;1.52;;;16.10;80.30;;;;;;6146456;23;20507;-75
2021/05/27 05:50:14;;;;;;;3.70;1.02;;;16.20;80.90;;;;;;6117057;23;20472;-71
2021/05/27 05:52:40;;;;;;;1.92;1.27;;;16.30;80.50;;;;;;6119357;23;20495;-71
2021/05/27 05:55:07;;;;;;;3.08;1.20;;;16.60;79.80;;;;;;6121881;23;20346;-78
2021/05/27 05:57:33;;;;;;;3.75;1.48;;;16.80;77.50;;;;;;6119753;23;20408;-78
2021/05/27 06:00:00;;;;;;;5.95;1.38;;;17.10;76.80;;;;;;6123804;23;20033;-71
2021/05/27 06:02:26;;;;;;;5.50;1.45;;;17.30;75.20;;;;;;6122474;23;20052;-79
2021/05/27 06:04:52;;;;;;;5.97;1.20;;;17.70;74.60;;;;;;6118297;23;20061;-78
2021/05/27 06:07:38;;;;;;;2.08;1.50;;;18.30;73.20;;;;;;6145453;23;20102;-80
2021/05/27 06:10:05;;;;;;;5.43;1.15;;;18.60;70.50;;;;;;6118151;23;20407;-71
2021/05/27 06:12:30;;;;;;;2.70;0.98;;;18.90;70.50;;;;;;6141791;23;20033;-71
2021/05/27 06:14:56;;;;;;;8.10;1.42;;;19.30;69.60;;;;;;6120983;23;20380;-72
2021/05/27 06:17:22;;;;;;;4.55;0.90;;;19.30;67.40;;;;;;6118348;23;20014;-73
2021/05/27 06:19:49;;;;;;;7.45;1.33;;;19.50;67.70;;;;;;6142937;23;20354;-72
2021/05/27 06:22:23;;;;;;;3.22;1.02;;;20.00;66.90;;;;;;6142477;23;20884;-72
2021/05/27 06:24:52;;;;;;;8.30;1.10;;;20.60;65.10;;;;;;6143333;23;20014;-72
2021/05/27 06:27:18;;;;;;;3.95;1.20;;;20.60;63.10;;;;;;6121887;23;20021;-72
2021/05/27 06:29:44;;;;;;;5.05;0.95;;;20.50;64.00;;;;;;6121918;23;20014;-72
2021/05/27 06:32:10;;;;;;;2.00;1.25;;;20.50;64.20;;;;;;6096096;23;20025;-72
2021/05/27 06:34:36;;;;;;;6.60;2.53;;;20.30;63.40;;;;;;6121608;23;20033;-72
2021/05/27 06:37:01;;;;;;;4.30;0.88;;;20.20;64.00;;;;;;6121997;23;20448;-73
2021/05/27 06:39:27;;;;;;;4.53;1.00;;;20.20;64.00;;;;;;6122055;23;20519;-72
2021/05/27 06:41:55;;;;;;;3.95;0.90;;;20.10;64.20;;;;;;6144728;23;20014;-66
2021/05/27 06:44:23;;;;;;;10.15;0.77;;;20.20;64.70;;;;;;6121587;23;20018;-70
2021/05/27 06:46:49;;;;;;;1.40;0.70;;;20.40;64.10;;;;;;6095951;23;20073;-69
2021/05/27 06:49:15;;;;;;;2.42;1.70;;;20.80;63.40;;;;;;6121154;23;20010;-70
2021/05/27 06:51:43;;;;;;;4.97;1.15;;;21.20;62.40;;;;;;6121333;23;20025;-70
2021/05/27 06:54:09;;;;;;;7.35;1.33;;;21.40;61.60;;;;;;6120156;23;20330;-71
2021/05/27 06:56:37;;;;;;;2.08;0.90;;;21.50;61.10;;;;;;6121346;23;20096;-70
2021/05/27 06:59:03;;;;;;;1.30;0.60;;;21.60;59.60;;;;;;6121320;23;20010;-71
2021/05/27 07:01:29;;;;;;;4.32;0.65;;;21.60;59.30;;;;;;6095418;23;20022;-73
2021/05/27 07:03:54;;;;;;;6.10;1.10;;;21.40;60.00;;;;;;6121235;23;20013;-72
2021/05/27 07:06:20;;;;;;;4.15;0.55;;;21.50;59.10;;;;;;6119482;23;20025;-73
2021/05/27 07:08:46;;;;;;;2.55;0.90;;;21.50;58.90;;;;;;6119886;23;20014;-73
2021/05/27 07:11:13;;;;;;;4.68;0.82;;;22.40;58.30;;;;;;6120580;23;20520;-73
2021/05/27 07:13:38;;;;;;;3.30;0.85;;;23.90;56.70;;;;;;6119616;23;20454;-62
2021/05/27 07:16:04;;;;;;;0.77;0.65;;;26.20;52.20;;;;;;6121368;23;20025;-66
2021/05/27 07:18:30;;;;;;;4.70;0.50;;;28.10;49.30;;;;;;6121509;23;20424;-64
2021/05/27 07:20:56;;;;;;;3.17;0.60;;;29.40;47.70;;;;;;6121331;23;20017;-66
2021/05/27 07:23:22;;;;;;;4.65;0.73;;;30.70;45.30;;;;;;6121568;23;20017;-65
2021/05/27 07:25:48;;;;;;;6.45;0.90;;;30.30;44.80;;;;;;6121042;23;20014;-67
2021/05/27 07:28:15;;;;;;;4.63;0.50;;;30.40;44.50;;;;;;6119586;23;20049;-65
2021/05/27 07:30:41;;;;;;;5.20;0.50;;;30.60;43.80;;;;;;6119505;23;20387;-65
2021/05/27 07:33:07;;;;;;;2.03;0.60;;;31.20;44.00;;;;;;6120892;23;20018;-66
2021/05/27 07:35:33;;;;;;;1.65;0.40;;;31.60;43.40;;;;;;6120900;23;20033;-65
2021/05/27 07:37:59;;;;;;;3.72;0.40;;;31.90;41.80;;;;;;6119538;23;20046;-63
2021/05/27 07:40:26;;;;;;;2.55;0.20;;;33.40;41.30;;;;;;6121484;23;20534;-63
2021/05/27 07:42:52;;;;;;;0.88;0.32;;;34.40;40.60;;;;;;6120210;23;20460;-64
2021/05/27 07:45:18;;;;;;;2.17;0.63;;;34.20;39.20;;;;;;6121138;23;20018;-63
2021/05/27 07:47:45;;;;;;;0.63;0.60;;;34.50;39.50;;;;;;6121287;23;20018;-63
2021/05/27 07:50:11;;;;;;;0.82;0.20;;;35.20;38.70;;;;;;6120983;23;20020;-63
2021/05/27 07:52:37;;;;;;;1.23;0.40;;;35.60;38.50;;;;;;6120666;23;20018;-67
2021/05/27 07:55:05;;;;;;;4.53;0.30;;;35.80;38.00;;;;;;6121417;23;20101;-68
2021/05/27 07:57:31;;;;;;;0.63;0.25;;;36.30;38.10;;;;;;6121188;23;20085;-69
2021/05/27 07:59:57;;;;;;;0.45;0.20;;;36.90;37.50;;;;;;6119232;23;20018;-63
2021/05/27 08:02:23;;;;;;;1.70;0.20;;;37.60;36.60;;;;;;6120661;23;20100;-64
2021/05/27 08:04:49;;;;;;;2.08;0.20;;;38.10;36.40;;;;;;6122828;23;20029;-64
2021/05/27 08:07:15;;;;;;;0.20;0.17;;;37.40;37.20;;;;;;6119417;23;20029;-71
2021/05/27 08:09:41;;;;;;;0.98;0.20;;;37.50;36.80;;;;;;6121003;23;20050;-67
2021/05/27 08:12:08;;;;;;;0.10;0.10;;;38.30;36.60;;;;;;6121095;23;20022;-70
2021/05/27 08:14:35;;;;;;;0.17;0.08;;;38.50;36.40;;;;;;6120982;23;20076;-65
2021/05/27 08:17:02;;;;;;;0.10;0.10;;;39.90;35.40;;;;;;6120867;23;20080;-66
2021/05/27 08:19:27;;;;;;;0.10;0.10;;;39.10;34.70;;;;;;6122837;23;20025;-67
2021/05/27 08:21:54;;;;;;;0.88;0.13;;;39.30;34.80;;;;;;6121105;23;20022;-62
2021/05/27 08:24:20;;;;;;;0.38;0.10;;;39.50;34.10;;;;;;6120722;23;20029;-68
2021/05/27 08:26:47;;;;;;;0.73;0.00;;;37.60;35.60;;;;;;6119537;23;20026;-61
2021/05/27 08:29:13;;;;;;;0.20;0.00;;;36.60;36.20;;;;;;6120799;23;20045;-61
2021/05/27 08:31:40;;;;;;;0.15;0.10;;;36.50;36.40;;;;;;6120831;23;20029;-61
2021/05/27 08:34:08;;;;;;;0.20;0.10;;;37.70;35.60;;;;;;6120957;23;20025;-59
2021/05/27 08:36:35;;;;;;;0.20;0.10;;;38.50;35.50;;;;;;6120744;23;20512;-60
2021/05/27 08:39:01;;;;;;;3.90;0.10;;;37.80;36.10;;;;;;6120886;23;20048;-61
2021/05/27 08:41:28;;;;;;;0.77;0.10;;;37.30;35.80;;;;;;6122325;23;20050;-60
2021/05/27 08:43:53;;;;;;;0.52;0.10;;;36.60;36.00;;;;;;6120617;23;20093;-66
2021/05/27 08:46:23;;;;;;;0.95;0.10;;;36.90;36.50;;;;;;6143221;23;20032;-66
2021/05/27 08:48:50;;;;;;;2.35;0.10;;;38.30;36.10;;;;;;6122538;23;20022;-63
2021/05/27 08:51:17;;;;;;;2.88;0.10;;;39.20;35.40;;;;;;6120780;23;20109;-64
2021/05/27 08:53:44;;;;;;;0.90;0.20;;;39.70;35.30;;;;;;6118652;23;20053;-71
2021/05/27 08:56:11;;;;;;;3.67;0.13;;;40.50;34.60;;;;;;6122248;23;20026;-70
2021/05/27 08:58:38;;;;;;;1.48;0.05;;;40.90;34.20;;;;;;6119179;23;20029;-70
2021/05/27 09:01:06;;;;;;;0.40;0.10;;;40.40;34.00;;;;;;6119117;23;20045;-72
2021/05/27 09:03:58;;;;;;;0.10;0.08;;;41.20;34.00;;;;;;6120410;23;20514;-69
2021/05/27 09:06:25;;;;;;;4.82;0.20;;;42.50;33.20;;;;;;6117377;23;20041;-69
2021/05/27 09:09:06;;;;;;;0.60;0.20;;;43.30;33.20;;;;;;6118489;23;20022;-68
2021/05/27 09:11:37;;;;;;;0.68;0.43;;;44.50;32.10;;;;;;6118816;23;20026;-68
2021/05/27 09:14:04;;;;;;;0.55;0.10;;;44.00;31.60;;;;;;6120577;23;20026;-68
2021/05/27 09:16:30;;;;;;;0.10;0.10;;;43.60;31.70;;;;;;6120543;23;20102;-72
2021/05/27 09:19:18;;;;;;;0.10;0.10;;;43.10;32.30;;;;;;6120285;23;20049;-72
2021/05/27 09:21:45;;;;;;;2.92;0.10;;;42.90;32.90;;;;;;6119045;23;20028;-72
2021/05/27 09:24:11;;;;;;;1.15;0.13;;;43.00;32.90;;;;;;6143165;23;20500;-67
2021/05/27 09:26:51;;;;;;;0.95;0.10;;;42.80;33.30;;;;;;6145085;23;20057;-67
2021/05/27 09:29:18;;;;;;;1.17;0.10;;;40.20;34.50;;;;;;6120390;23;20064;-66
2021/05/27 09:32:05;;;;;;;0.85;0.20;;;38.40;35.70;;;;;;6120309;23;20018;-66
2021/05/27 09:34:43;;;;;;;6.13;0.17;;;37.00;36.90;;;;;;6120076;23;20145;-65
2021/05/27 09:37:22;;;;;;;0.20;0.10;;;37.30;36.10;;;;;;6121703;23;20045;-69
2021/05/27 09:39:51;;;;;;;0.10;0.03;;;37.60;35.50;;;;;;6120194;23;20092;-68
2021/05/27 09:42:17;;;;;;;0.95;0.20;;;37.40;35.90;;;;;;6119977;23;20110;-65
2021/05/27 09:44:43;;;;;;;0.10;0.10;;;38.30;35.40;;;;;;6120256;23;20836;-72
2021/05/27 09:47:09;;;;;;;0.55;0.10;;;38.00;36.00;;;;;;6120009;23;20058;-66
2021/05/27 09:49:35;;;;;;;3.08;0.10;;;37.50;35.40;;;;;;6120498;23;20022;-66
2021/05/27 09:52:21;;;;;;;3.53;0.10;;;36.50;36.50;;;;;;6120190;23;20029;-68
2021/05/27 09:54:52;;;;;;;2.25;0.10;;;35.70;36.20;;;;;;6119906;23;20057;-69
2021/05/27 09:57:26;;;;;;;0.93;0.43;;;35.10;36.90;;;;;;6120690;23;20029;-70
2021/05/27 09:59:53;;;;;;;1.90;0.10;;;34.10;38.40;;;;;;6119676;23;20448;-77
2021/05/27 10:02:20;;;;;;;1.77;0.00;;;33.50;38.40;;;;;;6143608;23;20048;-69
2021/05/27 10:04:55;;;;;;;0.00;0.00;;;33.10;38.30;;;;;;6119372;23;20028;-65
2021/05/27 10:07:41;;;;;;;0.40;0.10;;;33.10;37.50;;;;;;6119585;23;20105;-63
2021/05/27 10:10:09;;;;;;;0.80;0.00;;;36.40;35.40;;;;;;6120262;23;20033;-65
2021/05/27 10:12:41;;;;;;;0.30;0.10;;;37.80;34.50;;;;;;6120129;23;20032;-66
2021/05/27 10:15:10;;;;;;;3.08;0.10;;;37.40;34.30;;;;;;6120825;23;20368;-65
2021/05/27 10:17:37;;;;;;;0.55;0.00;;;38.70;34.00;;;;;;6119759;23;20100;-66
2021/05/27 10:20:12;;;;;;;1.42;0.20;;;38.30;34.40;;;;;;6121973;23;20053;-66
2021/05/27 10:22:38;;;;;;;0.08;0.00;;;40.00;33.40;;;;;;6118646;23;20060;-66
2021/05/27 10:25:07;;;;;;;0.88;0.00;;;40.70;33.50;;;;;;6123237;23;20080;-67
2021/05/27 10:27:34;;;;;;;0.00;0.00;;;41.40;32.80;;;;;;6119984;23;20401;-67
2021/05/27 10:30:06;;;;;;;0.10;0.10;;;41.10;32.70;;;;;;6120068;23;20029;-67
2021/05/27 10:32:40;;;;;;;3.53;0.00;;;41.10;33.00;;;;;;6120072;23;20073;-67
2021/05/27 10:35:07;;;;;;;3.72;0.10;;;41.50;32.20;;;;;;6119942;23;20103;-66
2021/05/27 10:37:39;;;;;;;0.80;0.10;;;42.60;32.00;;;;;;6120400;23;20021;-66
2021/05/27 10:40:22;;;;;;;1.85;0.00;;;41.60;32.20;;;;;;6121538;23;20358;-66
2021/05/27 10:42:58;;;;;;;3.10;0.10;;;41.60;32.30;;;;;;6119934;23;20122;-67
2021/05/27 10:45:32;;;;;;;1.48;0.10;;;41.30;33.10;;;;;;6120308;23;20109;-66
2021/05/27 10:48:16;;;;;;;1.00;0.10;;;39.60;33.30;;;;;;6120052;23;20101;-66
2021/05/27 10:50:49;;;;;;;2.33;0.10;;;40.20;33.10;;;;;;6121064;23;20029;-65
2021/05/27 10:53:44;;;;;;;2.20;0.10;;;39.30;34.10;;;;;;6119751;23;20030;-62
2021/05/27 10:56:18;;;;;;;4.97;0.20;;;39.40;33.70;;;;;;6119894;23;20049;-67
2021/05/27 10:58:48;;;;;;;1.08;0.10;;;38.90;34.10;;;;;;6119597;23;20053;-61
2021/05/27 11:01:18;;;;;;;1.55;0.28;;;38.40;34.20;;;;;;6118746;23;20014;-61
2021/05/27 11:03:50;;;;;;;1.73;0.15;;;38.00;34.80;;;;;;6122510;23;20046;-60
2021/05/27 11:06:17;;;;;;;5.07;0.43;;;37.00;36.60;;;;;;6118271;23;20050;-60
2021/05/27 11:08:43;;;;;;;1.13;0.25;;;36.20;36.50;;;;;;6119777;23;20021;-60
2021/05/27 11:11:34;;;;;;;4.88;1.23;;;35.70;36.80;;;;;;6123614;23;20515;-61
2021/05/27 11:14:20;;;;;;;1.20;0.10;;;35.20;36.90;;;;;;6121529;23;20855;-60
2021/05/27 11:17:08;;;;;;;1.98;0.08;;;34.60;37.40;;;;;;6121619;23;20026;-60
2021/05/27 11:22:32;;;;;;;1.10;0.10;;;33.60;38.10;;;;;;6121172;23;20486;-61
2021/05/27 11:25:15;;;;;;;1.20;0.10;;;33.30;38.70;;;;;;6119897;23;20049;-60
2021/05/27 11:27:48;;;;;;;3.75;0.10;;;33.40;38.90;;;;;;6121547;23;20076;-61
2021/05/27 11:33:21;;;;;;;13.45;0.73;;;33.90;37.90;;;;;;6125691;23;20018;-62
2021/05/27 11:35:52;;;;;;;6.57;0.32;;;34.00;38.20;;;;;;6121167;23;20056;-62
2021/05/27 11:38:27;;;;;;;5.38;0.40;;;33.50;38.30;;;;;;6124897;23;20026;-63
2021/05/27 11:40:57;;;;;;;1.17;0.10;;;32.90;38.70;;;;;;6120836;23;20065;-64
2021/05/27 11:43:49;;;;;;;5.57;0.10;;;32.70;38.80;;;;;;6120971;23;20681;-61
2021/05/27 11:46:28;;;;;;;5.28;0.40;;;32.00;39.30;;;;;;6114457;23;20045;-62
2021/05/27 11:51:32;;;;;;;4.53;0.10;;;31.80;39.30;;;;;;6121056;23;20034;-63
2021/05/27 11:54:06;;;;;;;0.17;0.00;;;32.00;39.20;;;;;;6124950;23;20105;-61
2021/05/27 11:56:38;;;;;;;1.90;0.00;;;31.80;39.00;;;;;;6121157;23;20100;-61
2021/05/27 11:59:10;;;;;;;;;;;31.50;39.20;;;;;;6121512;23;20030;-62
2021/05/27 12:01:38;;;;;;;0.00;0.00;;;31.00;39.70;;;;;;6120980;23;20004;-62
2021/05/27 12:04:18;;;;;;;1.85;0.00;;;30.80;40.40;;;;;;6121023;23;20037;-65
2021/05/27 12:06:51;;;;;;;4.05;0.00;;;30.00;41.60;;;;;;6120878;23;20089;-62
2021/05/27 12:09:24;;;;;;;0.10;0.10;;;29.60;42.00;;;;;;6119626;23;20030;-64
2021/05/27 12:11:51;;;;;;;2.92;0.10;;;29.50;42.10;;;;;;6121164;23;20100;-62
2021/05/27 12:14:17;;;;;;;0.10;0.00;;;29.40;42.90;;;;;;6122835;23;20042;-63
2021/05/27 12:16:43;;;;;;;3.63;0.10;;;29.40;42.90;;;;;;6120665;23;20337;-65
2021/05/27 12:19:13;;;;;;;0.15;0.10;;;29.30;43.40;;;;;;6120137;23;20033;-62
2021/05/27 12:22:09;;;;;;;0.08;0.08;;;29.60;42.80;;;;;;6120457;23;20021;-62
2021/05/27 12:24:35;;;;;;;6.05;0.20;;;29.60;43.20;;;;;;6107803;23;20060;-64
2021/05/27 12:27:00;;;;;;;3.15;0.10;;;29.10;44.10;;;;;;6119934;23;20730;-64
2021/05/27 12:29:27;;;;;;;3.53;0.10;;;29.20;43.80;;;;;;6124414;23;20018;-62
2021/05/27 12:31:53;;;;;;;3.00;0.28;;;29.20;43.70;;;;;;6120715;23;20487;-63
2021/05/27 12:34:20;;;;;;;0.25;0.10;;;29.10;44.30;;;;;;6117768;23;20022;-64
2021/05/27 12:36:56;;;;;;;0.43;0.10;;;29.50;43.80;;;;;;6123169;23;20026;-71
2021/05/27 12:39:35;;;;;;;2.78;0.10;;;29.20;42.10;;;;;;6117412;23;20068;-68
2021/05/27 12:42:07;;;;;;;4.75;0.10;;;29.10;42.20;;;;;;6123586;23;20050;-68
2021/05/27 12:44:42;;;;;;;;;;;28.70;44.20;;;;;;6119426;23;20045;-65
2021/05/27 12:47:16;;;;;;;1.65;0.10;;;28.30;44.60;;;;;;6122575;23;20315;-68
2021/05/27 12:49:44;;;;;;;2.63;0.10;;;27.90;44.80;;;;;;6120556;23;20045;-68
2021/05/27 12:52:10;;;;;;;14.88;0.10;;;27.70;44.80;;;;;;6118443;23;20104;-69
2021/05/27 12:54:37;;;;;;;6.32;0.10;;;27.50;45.30;;;;;;6123945;23;20096;-70
2021/05/27 12:57:09;;;;;;;5.97;0.10;;;27.40;45.60;;;;;;6120644;23;20029;-70
2021/05/27 12:59:38;;;;;;;2.95;0.10;;;27.30;44.90;;;;;;6123275;23;20101;-70
2021/05/27 13:02:09;;;;;;;1.00;0.03;;;27.50;44.70;;;;;;6143494;23;20057;-70
2021/05/27 13:04:37;;;;;;;1.77;0.00;;;27.70;44.70;;;;;;6120532;23;20073;-70
2021/05/27 13:07:13;;;;;;;3.83;0.10;;;27.80;44.30;;;;;;6123948;23;20025;-70
2021/05/27 13:09:48;;;;;;;2.13;0.10;;;28.00;45.30;;;;;;6118848;23;20124;-71
2021/05/27 13:12:16;;;;;;;1.00;0.20;;;28.10;44.90;;;;;;6120619;23;20026;-71
2021/05/27 13:14:44;;;;;;;1.00;0.00;;;27.90;44.80;;;;;;6143719;23;20097;-71
2021/05/27 13:17:15;;;;;;;0.00;0.00;;;27.80;44.80;;;;;;6143313;23;20104;-72